Time;durP1;ratioP1;P1;durP2;ratioP2;P2;SDS_P1;SDS_P2;PMS_P1;PMS_P2;Temp;Humidity;BMP_temperature;BMP_pressure;BME280_temperature;BME280_humidity;BME280_pressure;Samples;Min_cycle;Max_cycle;Signal;HPM_P1;HPM_P2
2022/10/09 00:00:42;;;;;;;11.35;6.13;;;10.90;99.90;;;;;;4994657;28;20349;-69
2022/10/09 00:03:08;;;;;;;12.18;5.55;;;10.90;99.90;;;;;;4995741;28;20057;-69
2022/10/09 00:05:34;;;;;;;12.47;5.53;;;10.80;99.90;;;;;;4995675;28;20479;-68
2022/10/09 00:07:59;;;;;;;10.27;5.78;;;10.80;99.90;;;;;;4996173;28;20030;-68
2022/10/09 00:10:25;;;;;;;13.07;5.85;;;10.80;99.90;;;;;;4995829;28;20387;-68
2022/10/09 00:12:51;;;;;;;12.27;6.17;;;10.80;99.90;;;;;;4995912;28;20042;-68
2022/10/09 00:15:16;;;;;;;8.53;5.37;;;10.70;99.90;;;;;;4995862;28;20438;-69
2022/10/09 00:17:42;;;;;;;11.90;5.47;;;10.70;99.90;;;;;;4995469;28;20030;-69
2022/10/09 00:20:08;;;;;;;11.47;5.70;;;10.60;99.90;;;;;;4995076;28;20084;-68
2022/10/09 00:22:34;;;;;;;13.27;5.50;;;10.60;99.90;;;;;;4995286;28;20031;-68
2022/10/09 00:24:59;;;;;;;13.10;5.67;;;10.70;99.90;;;;;;4995492;28;20038;-69
2022/10/09 00:27:25;;;;;;;12.17;6.37;;;10.60;99.90;;;;;;4995871;28;20282;-68
2022/10/09 00:29:51;;;;;;;11.43;6.67;;;10.60;99.90;;;;;;5002737;28;20026;-68
2022/10/09 00:32:17;;;;;;;11.37;5.37;;;10.70;99.90;;;;;;4999632;28;20395;-69
2022/10/09 00:34:42;;;;;;;11.75;5.97;;;10.70;99.90;;;;;;5002291;28;20297;-68
2022/10/09 00:37:08;;;;;;;11.65;5.93;;;10.80;99.90;;;;;;5003057;28;20084;-68
2022/10/09 00:39:34;;;;;;;11.38;5.85;;;10.80;99.90;;;;;;5002151;28;20054;-68
2022/10/09 00:42:00;;;;;;;12.20;5.90;;;10.80;99.90;;;;;;5002993;28;20431;-68
2022/10/09 00:44:56;;;;;;;12.02;5.43;;;10.60;99.90;;;;;;5003654;28;20039;-69
2022/10/09 00:47:27;;;;;;;12.88;5.80;;;10.50;99.90;;;;;;5001362;28;20033;-69
2022/10/09 00:49:58;;;;;;;8.85;5.53;;;10.40;99.90;;;;;;5000214;28;20022;-69
2022/10/09 00:52:25;;;;;;;11.77;5.35;;;10.30;99.90;;;;;;4995355;28;20023;-68
2022/10/09 00:54:52;;;;;;;12.80;6.28;;;10.20;99.90;;;;;;4997064;28;20018;-69
2022/10/09 00:57:18;;;;;;;14.07;5.72;;;10.10;99.90;;;;;;5000503;28;20026;-69
2022/10/09 00:59:44;;;;;;;12.75;6.60;;;10.10;99.90;;;;;;5000319;28;20037;-69
2022/10/09 01:02:09;;;;;;;11.32;5.63;;;10.10;99.90;;;;;;5048221;23;20049;-69
2022/10/09 01:04:35;;;;;;;12.90;6.37;;;10.10;99.90;;;;;;5051850;28;20022;-68
2022/10/09 01:07:20;;;;;;;12.90;7.17;;;10.00;99.90;;;;;;5036036;28;20087;-69
2022/10/09 01:10:00;;;;;;;11.73;6.70;;;10.00;99.90;;;;;;5034654;28;20367;-68
2022/10/09 01:12:39;;;;;;;15.35;6.05;;;10.00;99.90;;;;;;5050628;28;20070;-68
2022/10/09 01:15:20;;;;;;;13.43;7.05;;;9.90;99.90;;;;;;5034086;28;20496;-69
2022/10/09 01:17:51;;;;;;;12.48;6.15;;;9.80;99.90;;;;;;5033619;28;20087;-69
2022/10/09 01:20:29;;;;;;;10.15;5.88;;;9.70;99.90;;;;;;5035617;28;20037;-69
2022/10/09 01:23:02;;;;;;;12.40;6.00;;;9.70;99.90;;;;;;5033933;28;20025;-69
2022/10/09 01:25:38;;;;;;;13.30;5.70;;;9.70;99.90;;;;;;5035229;28;20033;-69
2022/10/09 01:28:06;;;;;;;12.38;5.97;;;9.80;99.90;;;;;;5035404;28;20029;-69
2022/10/09 01:30:33;;;;;;;9.27;5.60;;;9.80;99.90;;;;;;5034186;28;20017;-69
2022/10/09 01:32:58;;;;;;;8.23;5.35;;;9.80;99.90;;;;;;5014169;28;20383;-69
2022/10/09 01:35:25;;;;;;;14.17;6.20;;;9.90;99.90;;;;;;5015125;28;20022;-68
2022/10/09 01:37:53;;;;;;;12.45;6.30;;;9.90;99.90;;;;;;5013585;28;20026;-69
2022/10/09 01:40:20;;;;;;;12.30;5.78;;;9.90;99.90;;;;;;5014803;28;20030;-68
2022/10/09 01:42:45;;;;;;;16.95;6.13;;;9.90;99.90;;;;;;5015742;28;20438;-68
2022/10/09 01:45:12;;;;;;;11.97;5.87;;;9.90;99.90;;;;;;5015482;28;20030;-70
2022/10/09 01:47:38;;;;;;;8.73;5.50;;;9.90;99.90;;;;;;5013360;28;20036;-69
2022/10/09 01:50:13;;;;;;;;;;;9.90;99.90;;;;;;5014455;28;20056;-68
2022/10/09 01:52:55;;;;;;;13.38;5.70;;;10.00;99.90;;;;;;5014512;28;19905;-68
2022/10/09 01:55:39;;;;;;;10.43;5.65;;;9.90;99.90;;;;;;5015043;28;20022;-68
2022/10/09 01:58:20;;;;;;;10.88;6.05;;;9.90;99.90;;;;;;5015442;28;20029;-68
2022/10/09 02:00:58;;;;;;;10.82;6.00;;;9.80;99.90;;;;;;5033734;28;20390;-68
2022/10/09 02:03:27;;;;;;;12.88;5.70;;;9.80;99.90;;;;;;5035691;28;20120;-69
2022/10/09 02:05:55;;;;;;;13.45;5.97;;;9.60;99.90;;;;;;5050954;28;20036;-68
2022/10/09 02:08:22;;;;;;;12.15;5.82;;;9.50;99.90;;;;;;5033839;28;20504;-68
2022/10/09 02:10:51;;;;;;;9.63;5.85;;;9.40;99.90;;;;;;5049810;28;20113;-68
2022/10/09 02:13:17;;;;;;;10.85;5.70;;;9.40;99.90;;;;;;5034471;28;20022;-68
2022/10/09 02:15:56;;;;;;;13.07;6.40;;;9.40;99.90;;;;;;5050360;28;20056;-69
2022/10/09 02:18:55;;;;;;;14.93;5.85;;;9.40;99.90;;;;;;5034565;28;20268;-68
2022/10/09 02:21:25;;;;;;;10.07;5.90;;;9.30;99.90;;;;;;5031377;28;20029;-68
2022/10/09 02:23:54;;;;;;;11.90;6.25;;;9.30;99.90;;;;;;5035712;28;20389;-69
2022/10/09 02:26:20;;;;;;;10.82;6.20;;;9.30;99.90;;;;;;5034109;28;20025;-68
2022/10/09 02:28:45;;;;;;;10.45;5.55;;;9.20;99.90;;;;;;5034765;28;20433;-68
2022/10/09 02:31:23;;;;;;;14.00;6.07;;;9.30;99.90;;;;;;5034222;28;20096;-69
2022/10/09 02:34:09;;;;;;;15.85;6.18;;;9.30;99.90;;;;;;5035176;28;20089;-68
2022/10/09 02:36:35;;;;;;;14.82;6.05;;;9.30;99.90;;;;;;5033412;28;20022;-69
2022/10/09 02:39:02;;;;;;;15.27;6.35;;;9.40;99.90;;;;;;5033620;28;20030;-68
2022/10/09 02:41:27;;;;;;;;;;;9.30;99.90;;;;;;5035357;28;20038;-69
2022/10/09 02:43:53;;;;;;;12.32;5.97;;;9.30;99.90;;;;;;5037846;28;19958;-68
2022/10/09 02:46:19;;;;;;;12.40;5.85;;;9.30;99.90;;;;;;5036216;28;20121;-68
2022/10/09 02:48:45;;;;;;;14.65;6.25;;;9.30;99.90;;;;;;5038177;28;20034;-68
2022/10/09 02:51:11;;;;;;;9.43;5.43;;;9.20;99.90;;;;;;5037711;28;20048;-68
2022/10/09 02:53:37;;;;;;;13.93;5.90;;;9.20;99.90;;;;;;5038584;28;20257;-68
2022/10/09 02:56:02;;;;;;;10.25;6.22;;;9.20;99.90;;;;;;5038197;28;20628;-68
2022/10/09 02:58:32;;;;;;;13.00;5.80;;;9.20;99.90;;;;;;5038437;28;20537;-70
2022/10/09 03:00:58;;;;;;;14.70;6.50;;;9.20;99.90;;;;;;5039578;28;20025;-69
2022/10/09 03:03:24;;;;;;;11.20;6.63;;;9.20;99.90;;;;;;5054683;28;20049;-69
2022/10/09 03:06:08;;;;;;;9.20;6.27;;;9.20;99.90;;;;;;5053916;28;20029;-69
2022/10/09 03:08:34;;;;;;;11.32;6.25;;;9.20;99.90;;;;;;5053630;28;20722;-69
2022/10/09 03:10:59;;;;;;;9.48;5.82;;;9.10;99.90;;;;;;5037732;28;20025;-68
2022/10/09 03:13:25;;;;;;;8.17;5.43;;;9.20;99.90;;;;;;5054871;28;20093;-68
2022/10/09 03:15:50;;;;;;;11.20;6.17;;;9.20;99.90;;;;;;5052602;28;20045;-68
2022/10/09 03:18:16;;;;;;;12.07;6.00;;;9.10;99.90;;;;;;5037364;28;20041;-68
2022/10/09 03:20:41;;;;;;;10.57;5.27;;;9.10;99.90;;;;;;5036932;28;20045;-67
2022/10/09 03:23:07;;;;;;;11.17;5.80;;;9.10;99.90;;;;;;5052752;28;20477;-68
2022/10/09 03:25:33;;;;;;;11.20;6.63;;;9.10;99.90;;;;;;5053115;28;20065;-68
2022/10/09 03:27:58;;;;;;;11.10;5.50;;;9.00;99.90;;;;;;5037602;28;20080;-68
2022/10/09 03:30:24;;;;;;;9.37;5.77;;;9.00;99.90;;;;;;5036401;28;20474;-69
2022/10/09 03:32:49;;;;;;;14.67;6.07;;;9.00;99.90;;;;;;5037204;28;20076;-68
2022/10/09 03:35:15;;;;;;;12.27;5.90;;;9.00;99.90;;;;;;5037440;28;20584;-69
2022/10/09 03:37:40;;;;;;;11.83;5.80;;;8.90;99.90;;;;;;5052578;28;20071;-68
2022/10/09 03:40:06;;;;;;;13.40;5.80;;;8.90;99.90;;;;;;5036023;28;20026;-68
2022/10/09 03:42:32;;;;;;;13.30;5.80;;;9.00;99.90;;;;;;5037840;28;20033;-68
2022/10/09 03:45:01;;;;;;;11.80;6.50;;;8.90;99.90;;;;;;5037745;28;20037;-69
2022/10/09 03:47:27;;;;;;;15.77;6.20;;;8.90;99.90;;;;;;5037040;28;20033;-69
2022/10/09 03:49:53;;;;;;;12.33;6.57;;;8.90;99.90;;;;;;5037488;28;20025;-69
2022/10/09 03:52:18;;;;;;;12.70;6.17;;;8.90;99.90;;;;;;5036574;28;20478;-69
2022/10/09 03:54:44;;;;;;;13.53;6.50;;;8.80;99.90;;;;;;5037269;28;20101;-69
2022/10/09 03:57:09;;;;;;;12.70;6.63;;;8.70;99.90;;;;;;5037154;28;20382;-69
2022/10/09 03:59:35;;;;;;;9.90;5.90;;;8.70;99.90;;;;;;5035474;28;20022;-69
2022/10/09 04:02:00;;;;;;;12.57;5.83;;;8.70;99.90;;;;;;5037493;28;20030;-69
2022/10/09 04:04:26;;;;;;;11.40;6.37;;;8.70;99.90;;;;;;5037851;28;20029;-69
2022/10/09 04:06:51;;;;;;;13.57;6.47;;;8.70;99.90;;;;;;5037785;28;20038;-69
2022/10/09 04:09:17;;;;;;;10.93;6.03;;;8.80;99.90;;;;;;5052684;28;20040;-69
2022/10/09 04:11:42;;;;;;;12.77;5.93;;;8.80;99.90;;;;;;5038468;28;20029;-69
2022/10/09 04:14:08;;;;;;;12.93;6.73;;;8.80;99.90;;;;;;5052857;28;20425;-69
2022/10/09 04:16:34;;;;;;;12.10;6.38;;;8.70;99.90;;;;;;5053075;28;20021;-69
2022/10/09 04:18:59;;;;;;;12.77;6.53;;;8.60;99.90;;;;;;5037515;28;20033;-69
2022/10/09 04:21:25;;;;;;;14.27;7.30;;;8.60;99.90;;;;;;5052491;28;20033;-68
2022/10/09 04:23:51;;;;;;;13.97;6.93;;;8.50;99.90;;;;;;5035849;28;20081;-69
2022/10/09 04:26:16;;;;;;;12.45;7.20;;;8.40;99.90;;;;;;5052304;28;20120;-68
2022/10/09 04:28:42;;;;;;;15.80;7.37;;;8.40;99.90;;;;;;5036817;28;20068;-69
2022/10/09 04:31:08;;;;;;;15.93;7.13;;;8.30;99.90;;;;;;5051772;28;20033;-69
2022/10/09 04:33:33;;;;;;;14.60;7.47;;;8.30;99.90;;;;;;5036806;28;20073;-67
2022/10/09 04:35:59;;;;;;;20.40;9.40;;;8.20;99.90;;;;;;5036283;28;20075;-68
2022/10/09 04:38:25;;;;;;;15.33;7.70;;;8.20;99.90;;;;;;5037142;28;20071;-68
2022/10/09 04:40:58;;;;;;;15.88;7.80;;;8.20;99.90;;;;;;5036299;28;20021;-68
2022/10/09 04:43:24;;;;;;;17.92;8.00;;;8.20;99.90;;;;;;5052301;28;20041;-68
2022/10/09 04:45:50;;;;;;;13.98;7.47;;;8.10;99.90;;;;;;5037024;28;20022;-68
2022/10/09 04:48:15;;;;;;;16.10;7.87;;;8.10;99.90;;;;;;5036958;28;20532;-69
2022/10/09 04:50:41;;;;;;;14.20;8.13;;;8.10;99.90;;;;;;5036558;28;20025;-69
2022/10/09 04:53:08;;;;;;;19.80;8.03;;;8.10;99.90;;;;;;5037756;28;20022;-69
2022/10/09 04:55:38;;;;;;;16.27;8.25;;;8.10;99.90;;;;;;5052589;28;20034;-70
2022/10/09 04:58:04;;;;;;;13.90;7.88;;;8.00;99.90;;;;;;5051935;28;20036;-67
2022/10/09 05:00:29;;;;;;;15.33;7.90;;;8.10;99.90;;;;;;5051791;28;20021;-68
2022/10/09 05:02:55;;;;;;;12.40;7.37;;;8.00;99.90;;;;;;5036762;28;20029;-68
2022/10/09 05:05:20;;;;;;;13.50;7.40;;;8.00;99.90;;;;;;5035628;28;20071;-68
2022/10/09 05:07:46;;;;;;;16.77;7.57;;;8.00;99.90;;;;;;5036425;28;20030;-68
2022/10/09 05:10:11;;;;;;;11.83;7.53;;;8.10;99.90;;;;;;5051840;28;20025;-68
2022/10/09 05:12:37;;;;;;;14.53;7.20;;;8.00;99.90;;;;;;5035124;28;20116;-68
2022/10/09 05:15:03;;;;;;;14.67;7.70;;;8.00;99.90;;;;;;5036032;28;20032;-69
2022/10/09 05:17:29;;;;;;;14.55;7.32;;;8.00;99.90;;;;;;5035770;28;20037;-67
2022/10/09 05:19:54;;;;;;;13.00;7.50;;;7.90;99.90;;;;;;5034436;28;20625;-67
2022/10/09 05:22:20;;;;;;;17.67;7.27;;;7.90;99.90;;;;;;5050909;28;20029;-68
2022/10/09 05:24:45;;;;;;;14.10;7.40;;;7.90;99.90;;;;;;5051388;28;20060;-68
2022/10/09 05:27:11;;;;;;;16.50;8.30;;;7.80;99.90;;;;;;5034794;28;20482;-68
2022/10/09 05:29:36;;;;;;;14.67;8.13;;;7.90;99.90;;;;;;5035085;28;20025;-69
2022/10/09 05:32:02;;;;;;;12.43;7.00;;;7.90;99.90;;;;;;5034350;28;20052;-68
2022/10/09 05:34:27;;;;;;;17.93;7.73;;;7.80;99.90;;;;;;5034897;28;20037;-68
2022/10/09 05:36:53;;;;;;;14.70;7.77;;;7.90;99.90;;;;;;5033776;28;20036;-68
2022/10/09 05:39:18;;;;;;;13.63;7.33;;;7.90;99.90;;;;;;5050983;28;20057;-68
2022/10/09 05:41:44;;;;;;;13.17;7.10;;;7.90;99.90;;;;;;5035874;28;20084;-68
2022/10/09 05:44:10;;;;;;;16.53;7.60;;;7.80;99.90;;;;;;5035975;28;20486;-68
2022/10/09 05:46:36;;;;;;;13.48;7.97;;;7.80;99.90;;;;;;5035628;28;20061;-68
2022/10/09 05:49:04;;;;;;;15.23;7.53;;;7.80;99.90;;;;;;5051317;28;20061;-68
2022/10/09 05:51:32;;;;;;;16.50;7.68;;;7.90;99.90;;;;;;5051586;28;20136;-68
2022/10/09 05:54:00;;;;;;;13.48;7.95;;;7.80;99.90;;;;;;5035028;28;20048;-68
2022/10/09 05:56:27;;;;;;;14.10;7.85;;;7.80;99.90;;;;;;5051864;28;20390;-68
2022/10/09 05:58:54;;;;;;;;;;;7.80;99.90;;;;;;5051593;28;20548;-68
2022/10/09 06:01:21;;;;;;;16.93;7.63;;;7.70;99.90;;;;;;5036076;28;19913;-68
2022/10/09 06:03:49;;;;;;;13.77;8.32;;;7.80;99.90;;;;;;5036007;28;20048;-68
2022/10/09 06:06:15;;;;;;;15.23;7.10;;;7.80;99.90;;;;;;5035946;28;20030;-68
2022/10/09 06:08:41;;;;;;;13.25;6.85;;;7.80;99.90;;;;;;5051108;28;20032;-69
2022/10/09 06:11:17;;;;;;;16.60;8.90;;;7.80;99.90;;;;;;5051204;28;20374;-68
2022/10/09 06:13:43;;;;;;;17.50;8.23;;;7.80;99.90;;;;;;5051754;28;20021;-68
2022/10/09 06:16:12;;;;;;;;;;;7.80;99.90;;;;;;5037242;28;20056;-68
2022/10/09 06:18:40;;;;;;;13.65;7.25;;;7.90;99.90;;;;;;5037176;28;19936;-69
2022/10/09 06:21:06;;;;;;;10.50;7.18;;;7.90;99.90;;;;;;5037482;28;20139;-68
2022/10/09 06:23:32;;;;;;;15.15;7.15;;;7.90;99.90;;;;;;5037212;28;20053;-68
2022/10/09 06:26:01;;;;;;;12.40;7.13;;;7.90;99.90;;;;;;5036146;28;20037;-69
2022/10/09 06:28:31;;;;;;;15.57;7.43;;;8.00;99.90;;;;;;5053572;28;20093;-68
2022/10/09 06:31:08;;;;;;;11.57;7.07;;;8.00;99.90;;;;;;5033745;28;20058;-68
2022/10/09 06:33:36;;;;;;;15.13;6.97;;;8.10;99.90;;;;;;5017464;28;20037;-69
2022/10/09 06:36:05;;;;;;;16.30;7.55;;;8.00;99.90;;;;;;5016772;28;20498;-69
2022/10/09 06:38:32;;;;;;;12.95;6.75;;;8.00;99.90;;;;;;5016962;28;20030;-69
2022/10/09 06:41:06;;;;;;;14.93;7.22;;;8.20;99.90;;;;;;5016376;28;20100;-69
2022/10/09 06:43:32;;;;;;;15.77;7.20;;;8.20;99.90;;;;;;5017935;28;20116;-70
2022/10/09 06:46:03;;;;;;;13.50;7.07;;;8.20;99.90;;;;;;5016569;28;20442;-72
2022/10/09 06:48:30;;;;;;;14.65;7.45;;;8.20;99.90;;;;;;5016955;28;20390;-72
2022/10/09 06:50:59;;;;;;;;;;;8.30;99.90;;;;;;5017020;28;20502;-72
2022/10/09 06:53:25;;;;;;;12.40;7.22;;;8.40;99.90;;;;;;5016324;28;19905;-74
2022/10/09 06:55:54;;;;;;;10.68;6.82;;;8.40;99.90;;;;;;5016074;28;20022;-72
2022/10/09 06:58:19;;;;;;;14.52;6.70;;;8.50;99.90;;;;;;5017575;28;20041;-73
2022/10/09 07:00:45;;;;;;;15.50;6.97;;;8.60;99.90;;;;;;5019628;28;20030;-73
2022/10/09 07:03:10;;;;;;;12.70;6.50;;;8.60;99.90;;;;;;5037259;28;20029;-74
2022/10/09 07:05:36;;;;;;;14.97;7.13;;;8.70;99.90;;;;;;5038002;28;20028;-74
2022/10/09 07:08:02;;;;;;;14.10;7.30;;;8.70;99.90;;;;;;5054023;28;20029;-74
2022/10/09 07:10:27;;;;;;;11.90;6.80;;;8.70;99.90;;;;;;5036866;28;20045;-70
2022/10/09 07:12:53;;;;;;;15.63;6.97;;;8.70;99.90;;;;;;5037489;28;20253;-70
2022/10/09 07:15:18;;;;;;;10.57;6.70;;;8.80;99.90;;;;;;5036436;28;20029;-71
2022/10/09 07:17:44;;;;;;;12.73;6.67;;;8.90;99.90;;;;;;5052576;28;20026;-71
2022/10/09 07:20:09;;;;;;;11.10;6.43;;;8.90;99.90;;;;;;5037428;28;20025;-71
2022/10/09 07:22:35;;;;;;;18.30;7.00;;;9.00;99.90;;;;;;5052745;28;20026;-71
2022/10/09 07:25:00;;;;;;;18.53;8.87;;;9.10;99.90;;;;;;5037798;28;20051;-71
2022/10/09 07:27:26;;;;;;;12.87;6.87;;;9.10;99.90;;;;;;5051420;28;20482;-69
2022/10/09 07:29:52;;;;;;;9.67;6.27;;;9.20;99.90;;;;;;5037087;28;20462;-69
2022/10/09 07:32:17;;;;;;;17.80;7.70;;;9.30;99.90;;;;;;5052539;28;20487;-68
2022/10/09 07:34:43;;;;;;;14.23;7.60;;;9.40;99.90;;;;;;5052381;28;20036;-68
2022/10/09 07:37:08;;;;;;;14.97;8.00;;;9.50;99.90;;;;;;5052409;28;20509;-69
2022/10/09 07:39:34;;;;;;;9.63;6.53;;;9.50;99.90;;;;;;5052254;28;20501;-69
2022/10/09 07:42:00;;;;;;;10.67;6.27;;;9.60;99.90;;;;;;5054441;28;20029;-69
2022/10/09 07:44:26;;;;;;;10.65;6.80;;;9.70;99.90;;;;;;5022863;28;20049;-70
2022/10/09 07:46:52;;;;;;;13.68;7.68;;;9.80;99.90;;;;;;5031965;28;20037;-70
2022/10/09 07:49:18;;;;;;;13.48;7.15;;;9.90;99.90;;;;;;5015742;28;20030;-68
2022/10/09 07:51:44;;;;;;;12.85;7.57;;;10.00;99.90;;;;;;5016989;28;20033;-69
2022/10/09 07:54:10;;;;;;;14.40;6.90;;;10.00;99.90;;;;;;5017112;28;20095;-70
2022/10/09 07:56:36;;;;;;;9.30;6.40;;;10.10;99.90;;;;;;5032675;28;20029;-71
2022/10/09 07:59:13;;;;;;;13.52;6.68;;;10.20;99.90;;;;;;5017159;28;20486;-69
2022/10/09 08:01:40;;;;;;;8.75;5.28;;;10.20;99.90;;;;;;5019591;28;20042;-69
2022/10/09 08:04:05;;;;;;;;;;;10.30;99.90;;;;;;5034733;28;20084;-72
2022/10/09 08:06:32;;;;;;;9.70;6.07;;;10.30;99.90;;;;;;5017666;28;19905;-70
2022/10/09 08:08:59;;;;;;;12.95;5.80;;;10.40;99.90;;;;;;5018261;28;20036;-70
2022/10/09 08:11:26;;;;;;;11.45;6.25;;;10.40;99.90;;;;;;5018300;28;20029;-71
2022/10/09 08:13:53;;;;;;;9.18;5.57;;;10.60;99.90;;;;;;5017668;28;20033;-71
2022/10/09 08:16:20;;;;;;;10.48;5.43;;;10.70;99.90;;;;;;5018498;28;20479;-72
2022/10/09 08:18:46;;;;;;;11.55;5.65;;;10.80;99.90;;;;;;5018128;28;20049;-71
2022/10/09 08:21:15;;;;;;;13.32;5.32;;;11.00;99.90;;;;;;5018142;28;20078;-70
2022/10/09 08:23:41;;;;;;;8.38;4.78;;;11.10;99.90;;;;;;5017739;28;20026;-71
2022/10/09 08:26:17;;;;;;;7.22;4.57;;;11.20;99.90;;;;;;5018494;28;20033;-71
2022/10/09 08:28:43;;;;;;;9.45;4.07;;;11.30;99.90;;;;;;5016540;28;20030;-71
2022/10/09 08:31:13;;;;;;;5.25;3.58;;;11.40;99.90;;;;;;5017005;28;20025;-70
2022/10/09 08:33:39;;;;;;;8.27;3.65;;;11.50;99.90;;;;;;5015256;28;20058;-71
2022/10/09 08:36:07;;;;;;;6.45;3.85;;;11.70;99.90;;;;;;5014791;28;20033;-70
2022/10/09 08:38:33;;;;;;;5.97;3.45;;;11.80;99.90;;;;;;5015764;28;20043;-70
2022/10/09 08:41:14;;;;;;;9.23;4.30;;;12.00;99.90;;;;;;5015077;28;20026;-70
2022/10/09 08:43:45;;;;;;;10.18;3.90;;;12.10;99.90;;;;;;5022857;28;20056;-70
2022/10/09 08:46:48;;;;;;;11.52;3.90;;;12.20;99.90;;;;;;5035713;28;20034;-70
2022/10/09 08:49:33;;;;;;;7.80;4.47;;;12.30;99.90;;;;;;5035122;28;20033;-70
2022/10/09 08:52:12;;;;;;;6.82;3.50;;;12.50;99.90;;;;;;5051114;28;20561;-70
2022/10/09 08:54:39;;;;;;;7.47;4.10;;;12.60;99.90;;;;;;5034853;28;20478;-70
2022/10/09 08:57:14;;;;;;;7.38;3.22;;;12.80;99.90;;;;;;5036233;28;20025;-70
2022/10/09 08:59:40;;;;;;;7.63;3.30;;;13.00;99.90;;;;;;5052161;28;20490;-71
2022/10/09 09:02:35;;;;;;;6.65;3.53;;;13.30;99.90;;;;;;5050204;28;20040;-70
2022/10/09 09:05:06;;;;;;;10.05;4.03;;;14.00;99.90;;;;;;5035578;28;20116;-70
2022/10/09 09:07:40;;;;;;;5.43;2.88;;;14.80;99.90;;;;;;5046663;28;20048;-69
2022/10/09 09:10:36;;;;;;;6.55;2.83;;;15.90;99.90;;;;;;5058636;28;20032;-70
2022/10/09 09:13:10;;;;;;;8.35;3.17;;;16.20;99.90;;;;;;5046333;28;20029;-70
2022/10/09 09:15:44;;;;;;;5.80;2.90;;;15.90;99.90;;;;;;5060038;28;20063;-70
2022/10/09 09:18:31;;;;;;;6.15;2.47;;;15.70;99.90;;;;;;5044009;28;20080;-69
2022/10/09 09:21:10;;;;;;;6.90;2.67;;;16.20;99.90;;;;;;5042655;28;20117;-70
2022/10/09 09:23:43;;;;;;;7.70;2.78;;;16.90;99.90;;;;;;5045011;28;20041;-70
2022/10/09 09:26:16;;;;;;;4.80;1.98;;;16.70;99.90;;;;;;5050767;22;20037;-66
2022/10/09 09:28:42;;;;;;;5.85;2.10;;;16.30;99.90;;;;;;5033871;28;20053;-67
2022/10/09 09:31:14;;;;;;;;;;;16.70;99.90;;;;;;5034117;28;20097;-66
2022/10/09 09:33:48;;;;;;;4.85;2.13;;;16.80;99.90;;;;;;5033818;28;19905;-66
2022/10/09 09:36:29;;;;;;;5.88;2.30;;;17.20;99.90;;;;;;5034020;28;20390;-67
2022/10/09 09:38:54;;;;;;;4.10;2.05;;;18.20;99.90;;;;;;5033734;28;20025;-66
2022/10/09 09:41:20;;;;;;;7.77;2.17;;;19.00;99.90;;;;;;5034020;28;20025;-65
2022/10/09 09:43:46;;;;;;;5.30;2.42;;;19.20;98.70;;;;;;5033805;28;20033;-65
2022/10/09 09:46:17;;;;;;;5.38;2.30;;;19.70;98.10;;;;;;5033479;28;20034;-66
2022/10/09 09:48:47;;;;;;;4.82;2.30;;;19.60;97.30;;;;;;5015698;28;20025;-66
2022/10/09 09:51:20;;;;;;;4.47;1.92;;;20.00;97.20;;;;;;5034159;28;20397;-65
2022/10/09 09:53:49;;;;;;;3.22;1.80;;;20.80;95.40;;;;;;5034546;28;20043;-66
2022/10/09 09:56:15;;;;;;;5.10;2.08;;;22.00;94.00;;;;;;5033734;28;20032;-66
2022/10/09 09:58:47;;;;;;;4.50;1.92;;;24.00;90.50;;;;;;5034368;28;20021;-66
2022/10/09 10:01:23;;;;;;;7.07;2.08;;;24.10;88.10;;;;;;5033717;28;20108;-67
2022/10/09 10:03:51;;;;;;;4.50;2.20;;;24.60;86.60;;;;;;5033449;28;20466;-68
2022/10/09 10:06:44;;;;;;;4.22;2.20;;;26.60;82.50;;;;;;5033408;28;20104;-67
2022/10/09 10:09:15;;;;;;;3.53;1.83;;;26.90;78.00;;;;;;5030134;28;20038;-69
2022/10/09 10:11:47;;;;;;;5.60;2.25;;;28.10;75.70;;;;;;5015153;28;20017;-69
2022/10/09 10:14:15;;;;;;;17.83;4.35;;;29.10;72.50;;;;;;5033341;28;20133;-71
2022/10/09 10:16:41;;;;;;;3.33;1.80;;;28.00;71.20;;;;;;5015717;28;20026;-69
2022/10/09 10:19:22;;;;;;;4.63;2.03;;;28.50;71.30;;;;;;5033425;28;20334;-69
2022/10/09 10:22:00;;;;;;;5.82;2.20;;;28.50;68.70;;;;;;5033366;28;20021;-67
2022/10/09 10:24:40;;;;;;;3.97;2.25;;;28.70;68.30;;;;;;5015630;28;20512;-69
2022/10/09 10:27:45;;;;;;;5.50;2.05;;;28.70;67.00;;;;;;5032841;28;20045;-65
2022/10/09 10:30:13;;;;;;;5.00;2.33;;;28.20;67.50;;;;;;4952891;29;20039;-68
2022/10/09 10:32:54;;;;;;;5.55;1.90;;;28.10;68.60;;;;;;4952818;29;20039;-68
2022/10/09 10:35:24;;;;;;;2.83;1.70;;;29.20;67.40;;;;;;4953037;29;20078;-68
2022/10/09 10:38:09;;;;;;;4.43;2.22;;;29.60;65.30;;;;;;4953096;29;20055;-68
2022/10/09 10:40:36;;;;;;;6.30;2.00;;;29.30;64.70;;;;;;4952821;29;20039;-67
2022/10/09 10:43:04;;;;;;;3.83;2.00;;;28.00;65.50;;;;;;4936117;29;20027;-68
2022/10/09 10:45:39;;;;;;;4.80;1.80;;;27.60;65.80;;;;;;4936298;29;20122;-68
2022/10/09 10:48:10;;;;;;;5.70;1.85;;;26.70;66.90;;;;;;4952726;29;20114;-69
2022/10/09 10:51:01;;;;;;;4.28;2.20;;;26.20;67.70;;;;;;4952745;29;20024;-69
2022/10/09 10:53:45;;;;;;;4.10;1.90;;;25.60;68.80;;;;;;4952353;29;20134;-69
2022/10/09 10:56:30;;;;;;;3.83;2.22;;;23.50;72.30;;;;;;4952200;29;20480;-69
2022/10/09 10:59:17;;;;;;;4.75;2.20;;;21.50;76.50;;;;;;4952971;29;20040;-69
2022/10/09 11:02:02;;;;;;;3.30;1.98;;;20.40;80.00;;;;;;4954276;28;20032;-69
2022/10/09 11:04:39;;;;;;;6.75;2.35;;;19.40;81.40;;;;;;4956675;29;20042;-69
2022/10/09 11:07:24;;;;;;;6.70;2.70;;;18.70;83.80;;;;;;5017050;28;20117;-68
2022/10/09 11:10:21;;;;;;;4.45;1.98;;;18.30;85.50;;;;;;5017543;28;20133;-68
2022/10/09 11:12:53;;;;;;;5.88;2.30;;;17.80;87.30;;;;;;4998664;28;20026;-68
2022/10/09 11:15:47;;;;;;;4.00;2.00;;;17.70;89.20;;;;;;5016500;28;20038;-69
2022/10/09 11:18:44;;;;;;;5.07;2.22;;;17.80;90.30;;;;;;5016496;28;20029;-69
2022/10/09 11:21:36;;;;;;;5.43;2.28;;;17.80;90.10;;;;;;5016623;28;20370;-69
2022/10/09 11:24:20;;;;;;;5.75;2.17;;;17.60;90.20;;;;;;5016473;28;20041;-69
2022/10/09 11:26:46;;;;;;;8.63;2.47;;;17.50;90.70;;;;;;5015842;28;20362;-69
2022/10/09 11:29:28;;;;;;;4.73;2.20;;;17.50;90.80;;;;;;5016258;28;20029;-69
2022/10/09 11:32:04;;;;;;;5.03;2.00;;;17.60;91.00;;;;;;4998471;28;20022;-69
2022/10/09 11:34:36;;;;;;;5.90;1.85;;;17.60;90.90;;;;;;5016152;28;20026;-69
2022/10/09 11:37:10;;;;;;;7.68;2.05;;;17.50;91.00;;;;;;4998341;28;20120;-69
2022/10/09 11:39:37;;;;;;;6.82;1.92;;;17.30;91.30;;;;;;4998482;28;20490;-70
2022/10/09 11:42:05;;;;;;;4.75;1.90;;;17.40;91.80;;;;;;4998242;28;20041;-70
2022/10/09 11:44:54;;;;;;;6.10;2.20;;;17.50;91.80;;;;;;5029525;28;20474;-70
2022/10/09 11:47:28;;;;;;;5.25;1.92;;;17.40;91.60;;;;;;5035486;28;20022;-69
2022/10/09 11:50:02;;;;;;;5.43;2.13;;;17.30;91.70;;;;;;5018062;28;20026;-70
2022/10/09 11:52:45;;;;;;;6.07;2.15;;;17.30;92.00;;;;;;5036079;28;20082;-70
2022/10/09 11:55:19;;;;;;;4.82;2.08;;;17.40;92.30;;;;;;5035883;28;20029;-71
2022/10/09 11:57:45;;;;;;;4.80;2.17;;;17.50;92.30;;;;;;5017605;28;20432;-71
2022/10/09 12:00:11;;;;;;;3.65;2.17;;;17.60;91.80;;;;;;5035791;28;20104;-71
2022/10/09 12:02:37;;;;;;;6.20;2.00;;;17.70;92.20;;;;;;5035251;28;20030;-71
2022/10/09 12:05:38;;;;;;;4.50;1.67;;;17.80;92.20;;;;;;5017790;28;20034;-70
2022/10/09 12:08:15;;;;;;;4.55;2.40;;;18.00;91.90;;;;;;5034936;28;20041;-70
2022/10/09 12:10:51;;;;;;;5.00;2.10;;;18.00;91.70;;;;;;5035829;28;20021;-71
2022/10/09 12:13:28;;;;;;;4.60;2.20;;;18.00;91.60;;;;;;5016878;28;20076;-71
2022/10/09 12:15:55;;;;;;;;;;;18.00;91.50;;;;;;5035409;28;20272;-70
2022/10/09 12:18:36;;;;;;;15.17;2.37;;;18.00;91.70;;;;;;5035264;28;19905;-70
2022/10/09 12:21:06;;;;;;;3.00;1.60;;;18.00;91.60;;;;;;5017279;28;20025;-70
2022/10/09 12:23:36;;;;;;;8.02;2.30;;;17.90;91.50;;;;;;5035365;28;20028;-70
2022/10/09 12:26:02;;;;;;;6.38;1.83;;;17.90;91.50;;;;;;5034702;28;20108;-68
2022/10/09 12:28:36;;;;;;;5.57;2.20;;;17.90;91.40;;;;;;5017241;28;20060;-67
2022/10/09 12:31:05;;;;;;;3.90;2.38;;;17.90;91.60;;;;;;5017166;28;20120;-67
2022/10/09 12:33:39;;;;;;;5.10;2.00;;;18.00;91.90;;;;;;5017107;28;20113;-68
2022/10/09 12:36:25;;;;;;;5.15;2.58;;;18.10;91.50;;;;;;5034691;28;20423;-67
2022/10/09 12:38:51;;;;;;;5.82;1.98;;;18.10;91.50;;;;;;5017026;28;20540;-68
2022/10/09 12:41:23;;;;;;;4.25;1.88;;;18.10;91.60;;;;;;5016781;28;20037;-67
2022/10/09 12:43:52;;;;;;;10.32;2.00;;;18.20;91.90;;;;;;5034709;28;20032;-68
2022/10/09 12:46:36;;;;;;;5.07;2.03;;;18.40;91.60;;;;;;5034459;28;20022;-67
2022/10/09 12:49:13;;;;;;;5.60;1.60;;;18.30;91.10;;;;;;5017033;28;20022;-68
2022/10/09 12:51:38;;;;;;;4.35;2.00;;;18.30;91.00;;;;;;5035020;28;20052;-66
2022/10/09 12:54:08;;;;;;;4.87;1.97;;;18.20;91.20;;;;;;5034690;28;20037;-66
2022/10/09 12:56:37;;;;;;;4.97;2.10;;;18.40;90.90;;;;;;5034168;28;20071;-64
2022/10/09 12:59:05;;;;;;;4.07;1.75;;;18.40;91.00;;;;;;5034666;28;20021;-65
2022/10/09 13:01:32;;;;;;;4.25;2.25;;;18.40;90.60;;;;;;5034173;28;20033;-65
2022/10/09 13:04:03;;;;;;;3.85;1.90;;;18.40;90.60;;;;;;5034536;28;20033;-66